Neenah, WI (54956)

11:40 PM CDT on July 23, 2016 (GMT -0500)
Westwind Village | | Change Station

Elev 774 ft 44.17 °N, 88.50 °W | Updated 25 minutes ago

Mostly Cloudy
Mostly Cloudy
73.9 °F
Feels Like 71 °F
N
2.2
Wind Variable Wind from SSE

Today
High -- | Low -- °F
--% Chance of Precip.
Yesterday
High -- | Low -- °F
Precip. -- in
Pressure 29.86 in
Visibility 10.0 miles
Clouds Mostly Cloudy 9000 ft
Mostly Cloudy 12000 ft
Heat Index 71 °F
Dew Point 72 °F
Humidity 95%
Rainfall 0.00 in
Snow Depth Not available.
5:32 AM 8:27 PM
Waning Gibbous, 80% visible
METAR KATW 240435Z AUTO 16013G18KT 10SM BKN090 BKN120 23/22 A2986 RMK AO2
Pressure 29.86 in
Visibility 10.0 miles
Clouds Mostly Cloudy 9000 ft
Mostly Cloudy 12000 ft
Heat Index 71 °F
Dew Point 72 °F
Humidity 95%
Rainfall 0.00 in
Snow Depth Not available.
5:32 AM 8:27 PM
Waning Gibbous, 80% visible
METAR KATW 240435Z AUTO 16013G18KT 10SM BKN090 BKN120 23/22 A2986 RMK AO2

10-Day Weather Forecast

Almanac

Astronomy

Jul. 23, 2016 Rise Set
Actual Time
Civil Twilight
Nautical Twilight
Astronomical Twilight
Moon
Length of Visible Light
Length of Day
Tomorrow will be .
, % of the Moon is Illuminated

Today's Extremes

State Highs State Lows

Community

WunderPhotos

Upload Photos

1,927,030 photos uploaded!

WunderBlog® & News

Nearby

Air Quality

  Air Quality AQ Index Pollutant
Not available.

Snow Depth

Station Depth Elevation

Earthquake Activity

City Distance Mag. Time & Date
Minimum magnitude displayed is 2.5.

Coastal Water Temperatures

Place Temperature

Stations

Nearby Weather Stations

Station Location Temp. Windchill Dew Point Humidity Wind Precip. Elev Updated Type
                   

Watches & Warnings

There are currently no watches in effect.